sensor_id;sensor_type;location;lat;lon;timestamp;pressure;altitude;pressure_sealevel;temperature;humidity
46614;BME280;32338;50.430;6.806;2022-08-19T00:01:35;96510.88;;;15.55;100.00
46614;BME280;32338;50.430;6.806;2022-08-19T00:04:04;96516.97;;;15.44;100.00
46614;BME280;32338;50.430;6.806;2022-08-19T00:06:31;96522.03;;;15.34;100.00
46614;BME280;32338;50.430;6.806;2022-08-19T00:09:00;96512.28;;;15.28;100.00
46614;BME280;32338;50.430;6.806;2022-08-19T00:11:27;96523.66;;;15.35;100.00
46614;BME280;32338;50.430;6.806;2022-08-19T00:13:54;96525.06;;;15.37;100.00
46614;BME280;32338;50.430;6.806;2022-08-19T00:16:23;96523.84;;;15.33;100.00
46614;BME280;32338;50.430;6.806;2022-08-19T00:18:51;96509.75;;;15.33;100.00
46614;BME280;32338;50.430;6.806;2022-08-19T00:21:18;96518.09;;;15.36;100.00
46614;BME280;32338;50.430;6.806;2022-08-19T00:23:45;96518.03;;;15.24;100.00
46614;BME280;32338;50.430;6.806;2022-08-19T00:26:11;96519.63;;;15.14;100.00
46614;BME280;32338;50.430;6.806;2022-08-19T00:28:38;96521.91;;;15.10;100.00
46614;BME280;32338;50.430;6.806;2022-08-19T00:31:06;96516.34;;;15.12;100.00
46614;BME280;32338;50.430;6.806;2022-08-19T00:33:34;96520.25;;;15.28;100.00
46614;BME280;32338;50.430;6.806;2022-08-19T00:36:04;96528.59;;;15.31;100.00
46614;BME280;32338;50.430;6.806;2022-08-19T00:38:31;96534.19;;;15.42;100.00
46614;BME280;32338;50.430;6.806;2022-08-19T00:40:58;96538.25;;;15.44;100.00
46614;BME280;32338;50.430;6.806;2022-08-19T00:43:26;96538.84;;;15.46;100.00
46614;BME280;32338;50.430;6.806;2022-08-19T00:45:54;96531.38;;;15.55;100.00
46614;BME280;32338;50.430;6.806;2022-08-19T00:48:20;96535.44;;;15.57;100.00
46614;BME280;32338;50.430;6.806;2022-08-19T00:50:50;96534.28;;;15.65;100.00
46614;BME280;32338;50.430;6.806;2022-08-19T00:53:22;96534.53;;;15.64;100.00
46614;BME280;32338;50.430;6.806;2022-08-19T00:55:53;96529.09;;;15.70;100.00
46614;BME280;32338;50.430;6.806;2022-08-19T00:58:22;96521.34;;;15.69;100.00
46614;BME280;32338;50.430;6.806;2022-08-19T01:00:50;96524.00;;;15.69;100.00
46614;BME280;32338;50.430;6.806;2022-08-19T01:03:20;96517.97;;;15.62;100.00
46614;BME280;32338;50.430;6.806;2022-08-19T01:05:49;96519.16;;;15.47;100.00
46614;BME280;32338;50.430;6.806;2022-08-19T01:08:19;96511.19;;;15.47;100.00
46614;BME280;32338;50.430;6.806;2022-08-19T01:10:48;96510.13;;;15.48;100.00
46614;BME280;32338;50.430;6.806;2022-08-19T01:13:17;96502.75;;;15.50;100.00
46614;BME280;32338;50.430;6.806;2022-08-19T01:15:48;96490.13;;;15.46;100.00
46614;BME280;32338;50.430;6.806;2022-08-19T01:18:18;96487.63;;;15.32;100.00
46614;BME280;32338;50.430;6.806;2022-08-19T01:20:45;96493.03;;;15.26;100.00
46614;BME280;32338;50.430;6.806;2022-08-19T01:23:14;96499.50;;;15.18;100.00
46614;BME280;32338;50.430;6.806;2022-08-19T01:25:44;96493.06;;;15.07;100.00
46614;BME280;32338;50.430;6.806;2022-08-19T01:28:16;96487.94;;;14.94;100.00
46614;BME280;32338;50.430;6.806;2022-08-19T01:30:44;96489.34;;;14.96;100.00
46614;BME280;32338;50.430;6.806;2022-08-19T01:33:12;96485.56;;;14.85;100.00
46614;BME280;32338;50.430;6.806;2022-08-19T01:35:40;96489.34;;;14.78;100.00
46614;BME280;32338;50.430;6.806;2022-08-19T01:38:09;96488.34;;;14.72;100.00
46614;BME280;32338;50.430;6.806;2022-08-19T01:40:38;96502.25;;;14.74;100.00
46614;BME280;32338;50.430;6.806;2022-08-19T01:43:07;96500.41;;;14.74;100.00
46614;BME280;32338;50.430;6.806;2022-08-19T01:45:35;96499.22;;;14.70;100.00
46614;BME280;32338;50.430;6.806;2022-08-19T01:48:03;96497.81;;;14.68;100.00
46614;BME280;32338;50.430;6.806;2022-08-19T01:50:30;96499.97;;;14.78;100.00
46614;BME280;32338;50.430;6.806;2022-08-19T01:52:57;96499.09;;;14.84;100.00
46614;BME280;32338;50.430;6.806;2022-08-19T01:55:24;96494.56;;;14.84;100.00
46614;BME280;32338;50.430;6.806;2022-08-19T01:57:55;96494.41;;;14.98;100.00
46614;BME280;32338;50.430;6.806;2022-08-19T02:00:26;96505.94;;;15.10;100.00
46614;BME280;32338;50.430;6.806;2022-08-19T02:02:54;96501.19;;;15.12;100.00
46614;BME280;32338;50.430;6.806;2022-08-19T02:05:21;96500.97;;;15.14;100.00
46614;BME280;32338;50.430;6.806;2022-08-19T02:07:48;96509.47;;;15.22;100.00
46614;BME280;32338;50.430;6.806;2022-08-19T02:10:17;96507.97;;;15.27;100.00
46614;BME280;32338;50.430;6.806;2022-08-19T02:12:44;96502.66;;;15.27;100.00
46614;BME280;32338;50.430;6.806;2022-08-19T02:15:12;96500.22;;;15.25;100.00
46614;BME280;32338;50.430;6.806;2022-08-19T02:17:39;96497.88;;;15.17;100.00
46614;BME280;32338;50.430;6.806;2022-08-19T02:20:07;96495.28;;;15.10;100.00
46614;BME280;32338;50.430;6.806;2022-08-19T02:22:34;96495.41;;;14.85;100.00
46614;BME280;32338;50.430;6.806;2022-08-19T02:25:02;96497.22;;;14.84;100.00
46614;BME280;32338;50.430;6.806;2022-08-19T02:27:30;96494.03;;;14.94;100.00
46614;BME280;32338;50.430;6.806;2022-08-19T02:29:57;96496.03;;;14.99;100.00
46614;BME280;32338;50.430;6.806;2022-08-19T02:32:25;96501.66;;;15.09;100.00
46614;BME280;32338;50.430;6.806;2022-08-19T02:34:52;96497.22;;;15.03;100.00
46614;BME280;32338;50.430;6.806;2022-08-19T02:37:19;96497.81;;;15.05;100.00
46614;BME280;32338;50.430;6.806;2022-08-19T02:40:18;96506.00;;;15.03;100.00
46614;BME280;32338;50.430;6.806;2022-08-19T02:42:45;96504.16;;;15.04;100.00
46614;BME280;32338;50.430;6.806;2022-08-19T02:45:12;96497.81;;;14.86;100.00
46614;BME280;32338;50.430;6.806;2022-08-19T02:47:40;96495.69;;;14.77;100.00
46614;BME280;32338;50.430;6.806;2022-08-19T02:50:08;96494.38;;;14.60;100.00
46614;BME280;32338;50.430;6.806;2022-08-19T02:52:35;96498.06;;;14.59;100.00
46614;BME280;32338;50.430;6.806;2022-08-19T02:55:02;96495.09;;;14.49;100.00
46614;BME280;32338;50.430;6.806;2022-08-19T02:57:30;96507.78;;;14.47;100.00
46614;BME280;32338;50.430;6.806;2022-08-19T02:59:58;96506.66;;;14.62;100.00
46614;BME280;32338;50.430;6.806;2022-08-19T03:02:25;96511.25;;;14.73;100.00
46614;BME280;32338;50.430;6.806;2022-08-19T03:04:54;96516.16;;;14.76;100.00
46614;BME280;32338;50.430;6.806;2022-08-19T03:07:20;96515.97;;;14.89;100.00
46614;BME280;32338;50.430;6.806;2022-08-19T03:09:47;96508.22;;;14.88;100.00
46614;BME280;32338;50.430;6.806;2022-08-19T03:12:13;96508.88;;;14.83;100.00
46614;BME280;32338;50.430;6.806;2022-08-19T03:14:40;96519.75;;;14.82;100.00
46614;BME280;32338;50.430;6.806;2022-08-19T03:17:07;96521.47;;;14.76;100.00
46614;BME280;32338;50.430;6.806;2022-08-19T03:19:33;96522.69;;;14.73;100.00
46614;BME280;32338;50.430;6.806;2022-08-19T03:22:02;96516.44;;;14.68;100.00
46614;BME280;32338;50.430;6.806;2022-08-19T03:24:30;96523.81;;;14.66;100.00
46614;BME280;32338;50.430;6.806;2022-08-19T03:26:57;96528.69;;;14.69;100.00
46614;BME280;32338;50.430;6.806;2022-08-19T03:29:25;96534.31;;;14.79;100.00
46614;BME280;32338;50.430;6.806;2022-08-19T03:31:52;96530.84;;;14.79;100.00
46614;BME280;32338;50.430;6.806;2022-08-19T03:34:21;96539.16;;;14.82;100.00
46614;BME280;32338;50.430;6.806;2022-08-19T03:36:51;96539.16;;;14.82;100.00
46614;BME280;32338;50.430;6.806;2022-08-19T03:39:20;96531.56;;;14.86;100.00
46614;BME280;32338;50.430;6.806;2022-08-19T03:41:48;96529.13;;;14.84;100.00
46614;BME280;32338;50.430;6.806;2022-08-19T03:44:18;96529.75;;;14.86;100.00
46614;BME280;32338;50.430;6.806;2022-08-19T03:46:46;96519.34;;;14.85;100.00
46614;BME280;32338;50.430;6.806;2022-08-19T03:49:14;96520.50;;;14.89;100.00
46614;BME280;32338;50.430;6.806;2022-08-19T03:51:41;96515.47;;;14.81;100.00
46614;BME280;32338;50.430;6.806;2022-08-19T03:54:10;96517.31;;;14.80;100.00
46614;BME280;32338;50.430;6.806;2022-08-19T03:56:41;96524.69;;;14.78;100.00
46614;BME280;32338;50.430;6.806;2022-08-19T03:59:10;96529.44;;;14.76;100.00
46614;BME280;32338;50.430;6.806;2022-08-19T04:01:38;96527.22;;;14.73;100.00
46614;BME280;32338;50.430;6.806;2022-08-19T04:04:05;96532.53;;;14.73;100.00
46614;BME280;32338;50.430;6.806;2022-08-19T04:06:34;96531.59;;;14.67;100.00
46614;BME280;32338;50.430;6.806;2022-08-19T04:09:03;96534.47;;;14.59;100.00
46614;BME280;32338;50.430;6.806;2022-08-19T04:11:33;96538.63;;;14.55;100.00
46614;BME280;32338;50.430;6.806;2022-08-19T04:14:02;96536.38;;;14.52;100.00
46614;BME280;32338;50.430;6.806;2022-08-19T04:16:29;96537.94;;;14.41;100.00
46614;BME280;32338;50.430;6.806;2022-08-19T04:18:59;96537.44;;;14.25;100.00
46614;BME280;32338;50.430;6.806;2022-08-19T04:21:27;96537.56;;;14.37;100.00
46614;BME280;32338;50.430;6.806;2022-08-19T04:23:54;96535.97;;;14.30;100.00
46614;BME280;32338;50.430;6.806;2022-08-19T04:26:25;96535.00;;;14.24;100.00
46614;BME280;32338;50.430;6.806;2022-08-19T04:28:52;96536.66;;;14.18;100.00
46614;BME280;32338;50.430;6.806;2022-08-19T04:31:23;96530.47;;;14.24;100.00
46614;BME280;32338;50.430;6.806;2022-08-19T04:33:51;96533.31;;;14.04;100.00
46614;BME280;32338;50.430;6.806;2022-08-19T04:36:21;96531.94;;;13.95;100.00
46614;BME280;32338;50.430;6.806;2022-08-19T04:38:49;96528.81;;;14.05;100.00
46614;BME280;32338;50.430;6.806;2022-08-19T04:41:16;96527.97;;;14.11;100.00
46614;BME280;32338;50.430;6.806;2022-08-19T04:44:01;96528.53;;;14.13;100.00
46614;BME280;32338;50.430;6.806;2022-08-19T04:46:30;96529.16;;;14.15;100.00
46614;BME280;32338;50.430;6.806;2022-08-19T04:48:57;96541.97;;;14.18;100.00
46614;BME280;32338;50.430;6.806;2022-08-19T04:51:23;96543.91;;;14.11;100.00
46614;BME280;32338;50.430;6.806;2022-08-19T04:53:50;96552.72;;;14.05;100.00
46614;BME280;32338;50.430;6.806;2022-08-19T04:56:18;96560.94;;;13.97;100.00
46614;BME280;32338;50.430;6.806;2022-08-19T04:58:46;96564.00;;;14.00;100.00
46614;BME280;32338;50.430;6.806;2022-08-19T05:01:15;96561.72;;;14.04;100.00
46614;BME280;32338;50.430;6.806;2022-08-19T05:03:44;96555.25;;;14.18;100.00
46614;BME280;32338;50.430;6.806;2022-08-19T05:06:13;96550.50;;;14.27;100.00
46614;BME280;32338;50.430;6.806;2022-08-19T05:08:41;96566.63;;;14.32;100.00
46614;BME280;32338;50.430;6.806;2022-08-19T05:11:10;96560.06;;;14.35;100.00
46614;BME280;32338;50.430;6.806;2022-08-19T05:13:38;96560.22;;;14.40;100.00
46614;BME280;32338;50.430;6.806;2022-08-19T05:16:04;96560.22;;;14.40;100.00
46614;BME280;32338;50.430;6.806;2022-08-19T05:18:31;96562.00;;;14.46;100.00
46614;BME280;32338;50.430;6.806;2022-08-19T05:21:19;96565.56;;;14.33;100.00
46614;BME280;32338;50.430;6.806;2022-08-19T05:24:04;96569.69;;;14.29;100.00
46614;BME280;32338;50.430;6.806;2022-08-19T05:26:34;96576.03;;;14.28;100.00
46614;BME280;32338;50.430;6.806;2022-08-19T05:29:01;96568.78;;;14.17;100.00
46614;BME280;32338;50.430;6.806;2022-08-19T05:31:28;96564.84;;;14.26;100.00
46614;BME280;32338;50.430;6.806;2022-08-19T05:33:55;96569.47;;;14.31;100.00
46614;BME280;32338;50.430;6.806;2022-08-19T05:36:25;96570.25;;;14.38;100.00
46614;BME280;32338;50.430;6.806;2022-08-19T05:38:52;96573.06;;;14.43;100.00
46614;BME280;32338;50.430;6.806;2022-08-19T05:41:19;96566.25;;;14.29;100.00
46614;BME280;32338;50.430;6.806;2022-08-19T05:43:48;96571.19;;;14.18;100.00
46614;BME280;32338;50.430;6.806;2022-08-19T05:46:17;96580.56;;;14.27;100.00
46614;BME280;32338;50.430;6.806;2022-08-19T05:48:44;96565.91;;;14.43;100.00
46614;BME280;32338;50.430;6.806;2022-08-19T05:51:11;96565.69;;;14.45;100.00
46614;BME280;32338;50.430;6.806;2022-08-19T05:53:39;96569.22;;;14.39;100.00
46614;BME280;32338;50.430;6.806;2022-08-19T05:56:07;96569.22;;;14.39;100.00
46614;BME280;32338;50.430;6.806;2022-08-19T05:58:35;96566.88;;;14.49;100.00
46614;BME280;32338;50.430;6.806;2022-08-19T06:01:03;96564.38;;;14.54;100.00
46614;BME280;32338;50.430;6.806;2022-08-19T06:03:31;96571.91;;;14.57;100.00
46614;BME280;32338;50.430;6.806;2022-08-19T06:05:59;96577.41;;;14.63;100.00
46614;BME280;32338;50.430;6.806;2022-08-19T06:08:28;96577.72;;;14.73;100.00
46614;BME280;32338;50.430;6.806;2022-08-19T06:10:56;96578.19;;;14.70;100.00
46614;BME280;32338;50.430;6.806;2022-08-19T06:13:23;96583.66;;;14.75;100.00
46614;BME280;32338;50.430;6.806;2022-08-19T06:15:51;96576.84;;;14.79;100.00
46614;BME280;32338;50.430;6.806;2022-08-19T06:18:17;96574.34;;;14.84;100.00
46614;BME280;32338;50.430;6.806;2022-08-19T06:20:44;96572.88;;;14.88;100.00
46614;BME280;32338;50.430;6.806;2022-08-19T06:23:11;96575.91;;;14.92;100.00
46614;BME280;32338;50.430;6.806;2022-08-19T06:25:38;96576.78;;;15.04;100.00
46614;BME280;32338;50.430;6.806;2022-08-19T06:28:06;96577.63;;;15.05;100.00
46614;BME280;32338;50.430;6.806;2022-08-19T06:30:33;96589.44;;;15.09;100.00
46614;BME280;32338;50.430;6.806;2022-08-19T06:33:00;96586.94;;;15.14;100.00
46614;BME280;32338;50.430;6.806;2022-08-19T06:35:26;96586.66;;;15.22;100.00
46614;BME280;32338;50.430;6.806;2022-08-19T06:37:54;96585.97;;;15.27;100.00
46614;BME280;32338;50.430;6.806;2022-08-19T06:40:21;96587.72;;;15.33;100.00
46614;BME280;32338;50.430;6.806;2022-08-19T06:42:48;96580.72;;;15.39;100.00
46614;BME280;32338;50.430;6.806;2022-08-19T06:45:16;96579.81;;;15.45;100.00
46614;BME280;32338;50.430;6.806;2022-08-19T06:47:43;96586.22;;;15.56;100.00
46614;BME280;32338;50.430;6.806;2022-08-19T06:50:12;96590.44;;;15.64;100.00
46614;BME280;32338;50.430;6.806;2022-08-19T06:52:39;96595.06;;;15.68;100.00
46614;BME280;32338;50.430;6.806;2022-08-19T06:55:06;96605.66;;;15.75;100.00
46614;BME280;32338;50.430;6.806;2022-08-19T06:57:33;96610.03;;;15.88;100.00
46614;BME280;32338;50.430;6.806;2022-08-19T07:00:00;96603.47;;;16.02;100.00
46614;BME280;32338;50.430;6.806;2022-08-19T07:02:29;96604.94;;;15.98;100.00
46614;BME280;32338;50.430;6.806;2022-08-19T07:04:55;96603.25;;;16.04;100.00
46614;BME280;32338;50.430;6.806;2022-08-19T07:07:23;96601.88;;;16.13;100.00
46614;BME280;32338;50.430;6.806;2022-08-19T07:09:50;96603.19;;;16.23;100.00
46614;BME280;32338;50.430;6.806;2022-08-19T07:12:18;96602.03;;;16.30;100.00
46614;BME280;32338;50.430;6.806;2022-08-19T07:14:45;96610.75;;;16.37;100.00
46614;BME280;32338;50.430;6.806;2022-08-19T07:17:14;96601.72;;;16.50;100.00
46614;BME280;32338;50.430;6.806;2022-08-19T07:19:42;96611.59;;;16.62;100.00
46614;BME280;32338;50.430;6.806;2022-08-19T07:22:09;96608.00;;;16.68;100.00
46614;BME280;32338;50.430;6.806;2022-08-19T07:24:37;96613.56;;;16.78;100.00
46614;BME280;32338;50.430;6.806;2022-08-19T07:27:05;96610.81;;;16.97;100.00
46614;BME280;32338;50.430;6.806;2022-08-19T07:29:35;96611.03;;;17.07;100.00
46614;BME280;32338;50.430;6.806;2022-08-19T07:32:04;96610.19;;;17.18;100.00
46614;BME280;32338;50.430;6.806;2022-08-19T07:34:32;96616.72;;;17.23;100.00
46614;BME280;32338;50.430;6.806;2022-08-19T07:37:04;96610.06;;;17.37;100.00
46614;BME280;32338;50.430;6.806;2022-08-19T07:39:34;96613.53;;;17.49;100.00
46614;BME280;32338;50.430;6.806;2022-08-19T07:42:05;96616.97;;;17.62;100.00
46614;BME280;32338;50.430;6.806;2022-08-19T07:44:33;96616.13;;;17.73;100.00
46614;BME280;32338;50.430;6.806;2022-08-19T07:47:00;96617.59;;;17.81;100.00
46614;BME280;32338;50.430;6.806;2022-08-19T07:49:27;96619.31;;;17.87;100.00
46614;BME280;32338;50.430;6.806;2022-08-19T07:51:56;96618.72;;;17.97;100.00
46614;BME280;32338;50.430;6.806;2022-08-19T07:54:27;96623.47;;;18.07;100.00
46614;BME280;32338;50.430;6.806;2022-08-19T07:56:54;96622.72;;;18.11;100.00
46614;BME280;32338;50.430;6.806;2022-08-19T07:59:22;96627.53;;;18.26;100.00
46614;BME280;32338;50.430;6.806;2022-08-19T08:01:49;96631.78;;;18.39;100.00
46614;BME280;32338;50.430;6.806;2022-08-19T08:04:17;96631.94;;;18.50;100.00
46614;BME280;32338;50.430;6.806;2022-08-19T08:07:01;96633.22;;;18.64;100.00
46614;BME280;32338;50.430;6.806;2022-08-19T08:09:46;96628.06;;;18.74;100.00
46614;BME280;32338;50.430;6.806;2022-08-19T08:12:16;96626.75;;;18.94;100.00
46614;BME280;32338;50.430;6.806;2022-08-19T08:14:45;96624.78;;;19.06;100.00
46614;BME280;32338;50.430;6.806;2022-08-19T08:17:13;96627.59;;;19.17;100.00
46614;BME280;32338;50.430;6.806;2022-08-19T08:19:40;96629.28;;;19.23;100.00
46614;BME280;32338;50.430;6.806;2022-08-19T08:22:08;96628.16;;;19.36;100.00
46614;BME280;32338;50.430;6.806;2022-08-19T08:25:00;96622.13;;;19.46;100.00
46614;BME280;32338;50.430;6.806;2022-08-19T08:27:28;96627.47;;;19.46;99.91
46614;BME280;32338;50.430;6.806;2022-08-19T08:29:56;96622.91;;;19.46;99.48
46614;BME280;32338;50.430;6.806;2022-08-19T08:32:23;96620.66;;;19.60;98.50
46614;BME280;32338;50.430;6.806;2022-08-19T08:34:49;96622.72;;;19.53;97.95
46614;BME280;32338;50.430;6.806;2022-08-19T08:37:16;96633.13;;;19.49;97.27
46614;BME280;32338;50.430;6.806;2022-08-19T08:39:42;96627.03;;;19.54;99.22
46614;BME280;32338;50.430;6.806;2022-08-19T08:42:15;96627.03;;;19.54;97.65
46614;BME280;32338;50.430;6.806;2022-08-19T08:44:50;96623.88;;;19.57;93.68
46614;BME280;32338;50.430;6.806;2022-08-19T08:47:20;96637.38;;;19.67;91.11
46614;BME280;32338;50.430;6.806;2022-08-19T08:49:51;96632.69;;;19.80;91.27
46614;BME280;32338;50.430;6.806;2022-08-19T08:52:21;96637.69;;;19.93;90.11
46614;BME280;32338;50.430;6.806;2022-08-19T08:54:52;96628.72;;;20.04;88.79
46614;BME280;32338;50.430;6.806;2022-08-19T08:57:26;96634.63;;;20.06;87.36
46614;BME280;32338;50.430;6.806;2022-08-19T08:59:56;96628.25;;;20.13;87.84
46614;BME280;32338;50.430;6.806;2022-08-19T09:02:23;96621.97;;;20.29;87.02
46614;BME280;32338;50.430;6.806;2022-08-19T09:04:50;96634.25;;;20.52;84.75
46614;BME280;32338;50.430;6.806;2022-08-19T09:07:28;96624.44;;;20.68;83.26
46614;BME280;32338;50.430;6.806;2022-08-19T09:10:04;96621.47;;;20.97;80.49
46614;BME280;32338;50.430;6.806;2022-08-19T09:12:42;96617.22;;;21.06;81.72
46614;BME280;32338;50.430;6.806;2022-08-19T09:15:16;96621.56;;;21.18;79.01
46614;BME280;32338;50.430;6.806;2022-08-19T09:17:44;96626.69;;;21.19;75.98
46614;BME280;32338;50.430;6.806;2022-08-19T09:20:15;96628.28;;;21.15;75.61
46614;BME280;32338;50.430;6.806;2022-08-19T09:22:44;96636.53;;;21.03;74.81
46614;BME280;32338;50.430;6.806;2022-08-19T09:25:13;96634.28;;;20.90;75.71
46614;BME280;32338;50.430;6.806;2022-08-19T09:27:43;96626.22;;;20.85;76.74
46614;BME280;32338;50.430;6.806;2022-08-19T09:30:14;96622.59;;;21.06;76.47
46614;BME280;32338;50.430;6.806;2022-08-19T09:32:41;96625.38;;;21.22;76.73
46614;BME280;32338;50.430;6.806;2022-08-19T09:35:08;96629.47;;;21.35;73.28
46614;BME280;32338;50.430;6.806;2022-08-19T09:37:35;96632.34;;;21.23;69.38
46614;BME280;32338;50.430;6.806;2022-08-19T09:40:03;96624.06;;;21.30;72.04
46614;BME280;32338;50.430;6.806;2022-08-19T09:42:31;96626.91;;;21.61;69.11
46614;BME280;32338;50.430;6.806;2022-08-19T09:45:00;96630.47;;;21.82;67.77
46614;BME280;32338;50.430;6.806;2022-08-19T09:47:27;96639.97;;;21.95;66.61
46614;BME280;32338;50.430;6.806;2022-08-19T09:49:53;96642.13;;;22.03;63.22
46614;BME280;32338;50.430;6.806;2022-08-19T09:52:20;96640.53;;;22.07;63.15
46614;BME280;32338;50.430;6.806;2022-08-19T09:54:47;96642.13;;;22.08;64.50
46614;BME280;32338;50.430;6.806;2022-08-19T09:57:13;96639.19;;;22.10;63.67
46614;BME280;32338;50.430;6.806;2022-08-19T09:59:40;96628.91;;;21.91;64.23
46614;BME280;32338;50.430;6.806;2022-08-19T10:02:09;96629.44;;;21.88;67.05
46614;BME280;32338;50.430;6.806;2022-08-19T10:04:36;96627.31;;;22.00;65.53
46614;BME280;32338;50.430;6.806;2022-08-19T10:07:29;96628.44;;;22.15;65.43
46614;BME280;32338;50.430;6.806;2022-08-19T10:09:56;96627.94;;;22.33;64.07
46614;BME280;32338;50.430;6.806;2022-08-19T10:12:22;96621.75;;;22.48;61.01
46614;BME280;32338;50.430;6.806;2022-08-19T10:14:49;96625.28;;;22.49;59.62
46614;BME280;32338;50.430;6.806;2022-08-19T10:17:18;96620.16;;;22.63;61.10
46614;BME280;32338;50.430;6.806;2022-08-19T10:19:44;96619.88;;;22.80;60.35
46614;BME280;32338;50.430;6.806;2022-08-19T10:22:11;96620.13;;;22.94;61.53
46614;BME280;32338;50.430;6.806;2022-08-19T10:24:39;96623.34;;;23.06;60.49
46614;BME280;32338;50.430;6.806;2022-08-19T10:27:06;96615.25;;;23.22;59.57
46614;BME280;32338;50.430;6.806;2022-08-19T10:29:33;96605.25;;;23.38;59.84
46614;BME280;32338;50.430;6.806;2022-08-19T10:32:02;96611.75;;;23.26;59.12
46614;BME280;32338;50.430;6.806;2022-08-19T10:34:31;96617.72;;;22.92;57.96
46614;BME280;32338;50.430;6.806;2022-08-19T10:36:58;96609.13;;;22.54;59.00
46614;BME280;32338;50.430;6.806;2022-08-19T10:39:27;96598.34;;;22.54;59.91
46614;BME280;32338;50.430;6.806;2022-08-19T10:41:55;96607.25;;;22.70;61.98
46614;BME280;32338;50.430;6.806;2022-08-19T10:44:22;96601.03;;;22.90;61.53
46614;BME280;32338;50.430;6.806;2022-08-19T10:46:49;96606.38;;;23.16;59.81
46614;BME280;32338;50.430;6.806;2022-08-19T10:49:18;96612.31;;;23.18;59.54
46614;BME280;32338;50.430;6.806;2022-08-19T10:51:47;96612.28;;;23.23;58.14
46614;BME280;32338;50.430;6.806;2022-08-19T10:54:32;96611.72;;;23.31;60.23
46614;BME280;32338;50.430;6.806;2022-08-19T10:57:13;96608.97;;;23.47;59.71
46614;BME280;32338;50.430;6.806;2022-08-19T10:59:40;96604.72;;;23.30;57.60
46614;BME280;32338;50.430;6.806;2022-08-19T11:02:09;96602.06;;;23.10;57.11
46614;BME280;32338;50.430;6.806;2022-08-19T11:04:38;96598.28;;;23.16;58.17
46614;BME280;32338;50.430;6.806;2022-08-19T11:07:07;96590.69;;;23.28;59.08
46614;BME280;32338;50.430;6.806;2022-08-19T11:09:38;96604.16;;;23.39;59.50
46614;BME280;32338;50.430;6.806;2022-08-19T11:12:06;96594.75;;;23.36;59.34
46614;BME280;32338;50.430;6.806;2022-08-19T11:14:33;96601.44;;;23.49;60.41
46614;BME280;32338;50.430;6.806;2022-08-19T11:17:01;96587.84;;;23.70;59.04
46614;BME280;32338;50.430;6.806;2022-08-19T11:19:28;96599.09;;;23.87;57.83
46614;BME280;32338;50.430;6.806;2022-08-19T11:21:55;96601.22;;;23.95;57.70
46614;BME280;32338;50.430;6.806;2022-08-19T11:24:24;96589.41;;;23.81;57.80
46614;BME280;32338;50.430;6.806;2022-08-19T11:26:54;96597.53;;;23.76;57.98
46614;BME280;32338;50.430;6.806;2022-08-19T11:29:22;96581.34;;;23.76;58.93
46614;BME280;32338;50.430;6.806;2022-08-19T11:31:51;96591.31;;;23.80;57.85
46614;BME280;32338;50.430;6.806;2022-08-19T11:34:20;96589.72;;;23.74;56.80
46614;BME280;32338;50.430;6.806;2022-08-19T11:36:49;96592.41;;;23.74;57.04
46614;BME280;32338;50.430;6.806;2022-08-19T11:39:18;96585.69;;;23.72;57.64
46614;BME280;32338;50.430;6.806;2022-08-19T11:41:47;96589.81;;;23.48;57.69
46614;BME280;32338;50.430;6.806;2022-08-19T11:44:14;96588.00;;;23.39;58.62
46614;BME280;32338;50.430;6.806;2022-08-19T11:46:42;96594.19;;;23.34;58.40
46614;BME280;32338;50.430;6.806;2022-08-19T11:49:10;96598.25;;;23.31;59.43
46614;BME280;32338;50.430;6.806;2022-08-19T11:51:37;96593.09;;;23.45;60.17
46614;BME280;32338;50.430;6.806;2022-08-19T11:54:05;96591.72;;;23.48;58.12
46614;BME280;32338;50.430;6.806;2022-08-19T11:56:32;96594.44;;;23.43;58.30
46614;BME280;32338;50.430;6.806;2022-08-19T11:59:01;96588.53;;;23.36;57.52
46614;BME280;32338;50.430;6.806;2022-08-19T12:01:27;96594.69;;;23.46;57.25
46614;BME280;32338;50.430;6.806;2022-08-19T12:03:55;96587.69;;;23.45;55.96
46614;BME280;32338;50.430;6.806;2022-08-19T12:06:25;96592.84;;;23.37;56.81
46614;BME280;32338;50.430;6.806;2022-08-19T12:08:54;96590.69;;;23.34;57.45
46614;BME280;32338;50.430;6.806;2022-08-19T12:11:22;96591.97;;;23.57;55.89
46614;BME280;32338;50.430;6.806;2022-08-19T12:13:49;96583.53;;;23.69;56.87
46614;BME280;32338;50.430;6.806;2022-08-19T12:16:20;96580.84;;;24.19;56.09
46614;BME280;32338;50.430;6.806;2022-08-19T12:18:48;96585.06;;;24.35;54.91
46614;BME280;32338;50.430;6.806;2022-08-19T12:21:18;96583.31;;;24.10;54.44
46614;BME280;32338;50.430;6.806;2022-08-19T12:23:46;96581.13;;;24.17;55.29
46614;BME280;32338;50.430;6.806;2022-08-19T12:26:14;96580.50;;;24.31;55.33
46614;BME280;32338;50.430;6.806;2022-08-19T12:28:40;96586.19;;;24.29;53.61
46614;BME280;32338;50.430;6.806;2022-08-19T12:31:08;96586.03;;;24.10;53.60
46614;BME280;32338;50.430;6.806;2022-08-19T12:33:38;96593.41;;;24.34;53.09
46614;BME280;32338;50.430;6.806;2022-08-19T12:36:08;96583.53;;;24.19;53.96
46614;BME280;32338;50.430;6.806;2022-08-19T12:38:36;96584.03;;;24.26;54.07
46614;BME280;32338;50.430;6.806;2022-08-19T12:41:03;96576.19;;;24.29;53.84
46614;BME280;32338;50.430;6.806;2022-08-19T12:43:32;96571.50;;;24.40;50.68
46614;BME280;32338;50.430;6.806;2022-08-19T12:45:59;96570.53;;;24.60;50.19
46614;BME280;32338;50.430;6.806;2022-08-19T12:48:26;96572.00;;;25.06;49.15
46614;BME280;32338;50.430;6.806;2022-08-19T12:50:54;96563.06;;;25.30;49.19
46614;BME280;32338;50.430;6.806;2022-08-19T12:53:21;96559.81;;;25.57;48.54
46614;BME280;32338;50.430;6.806;2022-08-19T12:55:54;96560.44;;;25.25;45.21
46614;BME280;32338;50.430;6.806;2022-08-19T12:58:21;96562.06;;;25.26;45.06
46614;BME280;32338;50.430;6.806;2022-08-19T13:00:48;96564.09;;;25.39;44.33